Time;durP1;ratioP1;P1;durP2;ratioP2;P2;SDS_P1;SDS_P2;PMS_P1;PMS_P2;Temp;Humidity;BMP_temperature;BMP_pressure;BME280_temperature;BME280_humidity;BME280_pressure;Samples;Min_cycle;Max_cycle;Signal;HPM_P1;HPM_P2
2023/08/15 00:00:25;;;;;;;;;;;21.70;99.90;;;;;;5026228;28;19988;-70
2023/08/15 00:02:52;;;;;;;;;;;21.70;99.90;;;;;;5025552;28;19996;-70
2023/08/15 00:05:18;;;;;;;;;;;21.80;99.90;;;;;;5026277;28;19928;-70
2023/08/15 00:07:45;;;;;;;;;;;21.70;99.90;;;;;;5025675;28;19922;-70
2023/08/15 00:10:11;;;;;;;;;;;21.70;99.90;;;;;;5026432;28;19947;-70
2023/08/15 00:12:39;;;;;;;;;;;21.70;99.90;;;;;;5026379;28;19928;-70
2023/08/15 00:15:06;;;;;;;;;;;21.60;99.90;;;;;;5026126;28;19922;-70
2023/08/15 00:17:33;;;;;;;;;;;21.60;99.90;;;;;;5025449;28;20165;-70
2023/08/15 00:20:00;;;;;;;;;;;21.60;99.90;;;;;;5026159;28;19921;-70
2023/08/15 00:22:26;;;;;;;;;;;21.50;99.90;;;;;;5026060;28;19992;-70
2023/08/15 00:24:53;;;;;;;;;;;21.50;99.90;;;;;;5025690;28;19988;-70
2023/08/15 00:27:19;;;;;;;;;;;21.40;99.90;;;;;;5025436;28;19921;-71
2023/08/15 00:29:48;;;;;;;;;;;21.40;99.90;;;;;;5025983;28;19927;-70
2023/08/15 00:32:14;;;;;;;;;;;21.40;99.90;;;;;;5025879;28;19988;-70
2023/08/15 00:34:41;;;;;;;;;;;21.40;99.90;;;;;;5023274;28;19921;-70
2023/08/15 00:37:07;;;;;;;;;;;21.40;99.90;;;;;;5025112;28;19944;-69
2023/08/15 00:39:34;;;;;;;;;;;21.30;99.90;;;;;;5025715;28;19922;-70
2023/08/15 00:42:00;;;;;;;;;;;21.30;99.90;;;;;;5025288;28;20210;-70
2023/08/15 00:44:27;;;;;;;;;;;21.30;99.90;;;;;;5025680;28;19921;-70
2023/08/15 00:46:55;;;;;;;;;;;21.20;99.90;;;;;;5004867;28;20214;-70
2023/08/15 00:49:22;;;;;;;;;;;21.20;99.90;;;;;;5023318;28;19921;-70
2023/08/15 00:51:48;;;;;;;;;;;21.20;99.90;;;;;;5025473;28;19988;-70
2023/08/15 00:54:15;;;;;;;;;;;21.20;99.90;;;;;;5025378;28;20146;-70
2023/08/15 00:56:42;;;;;;;;;;;21.20;99.90;;;;;;5024556;28;19921;-70
2023/08/15 00:59:09;;;;;;;;;;;21.20;99.90;;;;;;5025295;28;19944;-70
2023/08/15 01:01:36;;;;;;;;;;;21.20;99.90;;;;;;5024681;28;19921;-70
2023/08/15 01:04:06;;;;;;;;;;;21.10;99.90;;;;;;5025378;28;19945;-70
2023/08/15 01:06:32;;;;;;;;;;;21.10;99.90;;;;;;5024600;28;20168;-70
2023/08/15 01:08:59;;;;;;;;;;;21.10;99.90;;;;;;5024953;28;19922;-70
2023/08/15 01:11:30;;;;;;;;;;;21.00;99.90;;;;;;5025173;28;19927;-70
2023/08/15 01:14:00;;;;;;;;;;;21.00;99.90;;;;;;5025283;28;19921;-70
2023/08/15 01:16:28;;;;;;;;;;;20.90;99.90;;;;;;5024772;28;19922;-70
2023/08/15 01:18:58;;;;;;;;;;;20.80;99.90;;;;;;5024820;28;19988;-70
2023/08/15 01:21:30;;;;;;;;;;;20.80;99.90;;;;;;5024086;28;19921;-70
2023/08/15 01:23:58;;;;;;;;;;;20.80;99.90;;;;;;5025187;28;19997;-70
2023/08/15 01:26:25;;;;;;;;;;;20.70;99.90;;;;;;5024195;28;19985;-70
2023/08/15 01:28:51;;;;;;;;;;;20.70;99.90;;;;;;5024097;28;19921;-70
2023/08/15 01:31:32;;;;;;;;;;;20.70;99.90;;;;;;5023782;28;20170;-70
2023/08/15 01:34:00;;;;;;;;;;;20.70;99.90;;;;;;5024643;28;19928;-70
2023/08/15 01:36:31;;;;;;;;;;;20.70;99.90;;;;;;5024416;28;19922;-70
2023/08/15 01:39:00;;;;;;;;;;;20.70;99.90;;;;;;5024513;28;20068;-70
2023/08/15 01:41:30;;;;;;;;;;;20.70;99.90;;;;;;5024751;28;20098;-70
2023/08/15 01:43:57;;;;;;;;;;;20.70;99.90;;;;;;5024501;28;20209;-70
2023/08/15 01:46:23;;;;;;;;;;;20.70;99.90;;;;;;5024455;28;19988;-70
2023/08/15 01:48:50;;;;;;;;;;;20.70;99.90;;;;;;5023981;28;19922;-70
2023/08/15 01:51:16;;;;;;;;;;;20.60;99.90;;;;;;5024520;28;19927;-70
2023/08/15 01:53:43;;;;;;;;;;;20.60;99.90;;;;;;5024503;28;19944;-70
2023/08/15 01:56:13;;;;;;;;;;;20.60;99.90;;;;;;5024358;28;19922;-70
2023/08/15 01:58:39;;;;;;;;;;;20.60;99.90;;;;;;5023785;28;19988;-70
2023/08/15 02:01:06;;;;;;;;;;;20.60;99.90;;;;;;5024406;28;19921;-70
2023/08/15 02:03:32;;;;;;;;;;;20.60;99.90;;;;;;5024249;28;19996;-69
2023/08/15 02:05:59;;;;;;;;;;;20.50;99.90;;;;;;5024060;28;19922;-70
2023/08/15 02:08:26;;;;;;;;;;;20.50;99.90;;;;;;5023776;28;20116;-71
2023/08/15 02:10:52;;;;;;;;;;;20.50;99.90;;;;;;5025282;28;19985;-70
2023/08/15 02:13:20;;;;;;;;;;;20.50;99.90;;;;;;5023945;28;20153;-70
2023/08/15 02:15:47;;;;;;;;;;;20.50;99.90;;;;;;5023747;28;19988;-70
2023/08/15 02:18:13;;;;;;;;;;;20.50;99.90;;;;;;5023464;28;19928;-70
2023/08/15 02:20:40;;;;;;;;;;;20.50;99.90;;;;;;5023735;28;20272;-70
2023/08/15 02:23:07;;;;;;;;;;;20.50;99.90;;;;;;5023723;28;19984;-71
2023/08/15 02:25:33;;;;;;;;;;;20.50;99.90;;;;;;5023322;28;19984;-70
2023/08/15 02:28:07;;;;;;;;;;;20.40;99.90;;;;;;5020684;28;19988;-70
2023/08/15 02:30:37;;;;;;;;;;;20.40;99.90;;;;;;5023020;28;19960;-70
2023/08/15 02:33:03;;;;;;;;;;;20.40;99.90;;;;;;5024075;28;19992;-69
2023/08/15 02:35:30;;;;;;;;;;;20.40;99.90;;;;;;5023359;28;19927;-70
2023/08/15 02:37:57;;;;;;;;;;;20.30;99.90;;;;;;5023217;28;19929;-70
2023/08/15 02:40:24;;;;;;;;;;;20.20;99.90;;;;;;5023247;28;20357;-70
2023/08/15 02:42:51;;;;;;;;;;;20.20;99.90;;;;;;5023812;28;19943;-70
2023/08/15 02:45:18;;;;;;;;;;;20.10;99.90;;;;;;5023756;28;19921;-70
2023/08/15 02:47:46;;;;;;;;;;;20.00;99.90;;;;;;5023021;28;19988;-70
2023/08/15 02:50:14;;;;;;;;;;;19.90;99.90;;;;;;5023823;28;19921;-70
2023/08/15 02:52:40;;;;;;;;;;;19.90;99.90;;;;;;5023687;28;19960;-70
2023/08/15 02:55:07;;;;;;;;;;;19.90;99.90;;;;;;5023734;28;19928;-70
2023/08/15 02:57:34;;;;;;;;;;;19.80;99.90;;;;;;5022986;28;19980;-70
2023/08/15 03:00:00;;;;;;;;;;;19.80;99.90;;;;;;5023709;28;19927;-70
2023/08/15 03:02:27;;;;;;;;;;;19.80;99.90;;;;;;5023790;28;19921;-70
2023/08/15 03:04:55;;;;;;;;;;;19.80;99.90;;;;;;5023473;28;19968;-68
2023/08/15 03:07:22;;;;;;;;;;;19.80;99.90;;;;;;5023202;28;19957;-70
2023/08/15 03:09:49;;;;;;;;;;;19.80;99.90;;;;;;5023546;28;19928;-70
2023/08/15 03:12:15;;;;;;;;;;;19.80;99.90;;;;;;5023582;28;19985;-70
2023/08/15 03:14:42;;;;;;;;;;;19.80;99.90;;;;;;5023245;28;19921;-69
2023/08/15 03:17:09;;;;;;;;;;;19.80;99.90;;;;;;5022547;28;19921;-70
2023/08/15 03:19:36;;;;;;;;;;;19.80;99.90;;;;;;5023455;28;19922;-70
2023/08/15 03:22:07;;;;;;;;;;;19.80;99.90;;;;;;5023271;28;19975;-70
2023/08/15 03:24:33;;;;;;;;;;;19.80;99.90;;;;;;5025556;28;19922;-70
2023/08/15 03:27:02;;;;;;;;;;;19.80;99.90;;;;;;5024049;28;20593;-70
2023/08/15 03:29:29;;;;;;;;;;;19.80;99.90;;;;;;5026873;28;19992;-70
2023/08/15 03:31:57;;;;;;;;;;;19.80;99.90;;;;;;5027009;28;19980;-71
2023/08/15 03:34:24;;;;;;;;;;;19.90;99.90;;;;;;5026561;28;19960;-70
2023/08/15 03:36:51;;;;;;;;;;;19.80;99.90;;;;;;5026137;28;19988;-70
2023/08/15 03:39:19;;;;;;;;;;;19.80;99.90;;;;;;5026931;28;19922;-69
2023/08/15 03:41:45;;;;;;;;;;;19.80;99.90;;;;;;5026462;28;20201;-70
2023/08/15 03:44:12;;;;;;;;;;;19.90;99.90;;;;;;5026632;28;19929;-70
2023/08/15 03:46:40;;;;;;;;;;;19.80;99.90;;;;;;5025697;28;20288;-70
2023/08/15 03:49:07;;;;;;;;;;;19.80;99.90;;;;;;5026528;28;19921;-70
2023/08/15 03:51:33;;;;;;;;;;;19.80;99.90;;;;;;5026679;28;19928;-70
2023/08/15 03:54:00;;;;;;;;;;;19.70;99.90;;;;;;5026570;28;19922;-70
2023/08/15 03:56:28;;;;;;;;;;;19.70;99.90;;;;;;5026359;28;19928;-69
2023/08/15 03:58:55;;;;;;;;;;;19.70;99.90;;;;;;5026197;28;19953;-70
2023/08/15 04:01:21;;;;;;;;;;;19.60;99.90;;;;;;5026242;28;19922;-71
2023/08/15 04:03:51;;;;;;;;;;;19.60;99.90;;;;;;5026340;28;19997;-70
2023/08/15 04:06:17;;;;;;;;;;;19.70;99.90;;;;;;5026113;28;19985;-70
2023/08/15 04:08:45;;;;;;;;;;;19.60;99.90;;;;;;5025627;28;19929;-70
2023/08/15 04:11:11;;;;;;;;;;;19.60;99.90;;;;;;5026181;28;19921;-69
2023/08/15 04:13:39;;;;;;;;;;;19.60;99.90;;;;;;5025721;28;20261;-70
2023/08/15 04:16:06;;;;;;;;;;;19.60;99.90;;;;;;5026046;28;19988;-68
2023/08/15 04:18:33;;;;;;;;;;;19.60;99.90;;;;;;5025681;28;19921;-70
2023/08/15 04:21:00;;;;;;;;;;;19.60;99.90;;;;;;5026202;28;19921;-70
2023/08/15 04:23:27;;;;;;;;;;;19.60;99.90;;;;;;5025716;28;20213;-70
2023/08/15 04:25:53;;;;;;;;;;;19.60;99.90;;;;;;5025623;28;19928;-70
2023/08/15 04:28:20;;;;;;;;;;;19.60;99.90;;;;;;5025277;28;19925;-70
2023/08/15 04:30:49;;;;;;;;;;;19.60;99.90;;;;;;5024724;28;20122;-70
2023/08/15 04:33:16;;;;;;;;;;;19.50;99.90;;;;;;5025951;28;19921;-70
2023/08/15 04:35:42;;;;;;;;;;;19.60;99.90;;;;;;5024830;28;19922;-70
2023/08/15 04:38:10;;;;;;;;;;;19.50;99.90;;;;;;5024956;28;20288;-70
2023/08/15 04:40:39;;;;;;;;;;;19.60;99.90;;;;;;5025881;28;19921;-70
2023/08/15 04:43:06;;;;;;;;;;;19.50;99.90;;;;;;5025292;28;19929;-70
2023/08/15 04:45:32;;;;;;;;;;;19.50;99.90;;;;;;5025261;28;19989;-70
2023/08/15 04:48:00;;;;;;;;;;;19.60;99.90;;;;;;5024799;28;19922;-70
2023/08/15 04:50:27;;;;;;;;;;;19.50;99.90;;;;;;5025683;28;19984;-68
2023/08/15 04:52:54;;;;;;;;;;;19.40;99.90;;;;;;5025266;28;19921;-70
2023/08/15 04:55:20;;;;;;;;;;;19.40;99.90;;;;;;5017313;28;20102;-70
2023/08/15 04:57:47;;;;;;;;;;;19.40;99.90;;;;;;5024802;28;19921;-70
2023/08/15 05:00:15;;;;;;;;;;;19.40;99.90;;;;;;5025320;28;19929;-70
2023/08/15 05:02:42;;;;;;;;;;;19.40;99.90;;;;;;5025276;28;19921;-70
2023/08/15 05:05:10;;;;;;;;;;;19.40;99.90;;;;;;5025164;28;19984;-69
2023/08/15 05:07:37;;;;;;;;;;;19.50;99.90;;;;;;5024813;28;19953;-69
2023/08/15 05:10:03;;;;;;;;;;;19.50;99.90;;;;;;5025207;28;19923;-70
2023/08/15 05:12:30;;;;;;;;;;;19.60;99.90;;;;;;5025244;28;19925;-70
2023/08/15 05:14:57;;;;;;;;;;;19.60;99.90;;;;;;5025010;28;20229;-70
2023/08/15 05:17:23;;;;;;;;;;;19.70;99.90;;;;;;5024422;28;19921;-71
2023/08/15 05:19:50;;;;;;;;;;;19.70;99.90;;;;;;5024908;28;19922;-69
2023/08/15 05:22:18;;;;;;;;;;;19.80;99.90;;;;;;5025194;28;19928;-69
2023/08/15 05:24:44;;;;;;;;;;;19.80;99.90;;;;;;5024662;28;19928;-70
2023/08/15 05:27:12;;;;;;;;;;;19.90;99.90;;;;;;5019614;28;19988;-70
2023/08/15 05:29:40;;;;;;;;;;;19.90;99.90;;;;;;5023840;28;20237;-70
2023/08/15 05:32:06;;;;;;;;;;;20.00;99.90;;;;;;5025043;28;19964;-70
2023/08/15 05:34:33;;;;;;;;;;;20.10;99.90;;;;;;5024989;28;20329;-70
2023/08/15 05:37:00;;;;;;;;;;;20.20;99.90;;;;;;5024071;28;19921;-70
2023/08/15 05:39:28;;;;;;;;;;;20.30;99.90;;;;;;5024478;28;20257;-70
2023/08/15 05:41:54;;;;;;;;;;;20.40;99.90;;;;;;5024945;28;20300;-70
2023/08/15 05:44:21;;;;;;;;;;;20.50;99.90;;;;;;5024787;28;19928;-70
2023/08/15 05:46:47;;;;;;;;;;;20.60;99.90;;;;;;5023914;28;19986;-70
2023/08/15 05:49:14;;;;;;;;;;;20.70;99.90;;;;;;5024507;28;19976;-70
2023/08/15 05:51:40;;;;;;;;;;;20.80;99.90;;;;;;5024563;28;19928;-71
2023/08/15 05:54:07;;;;;;;;;;;20.90;99.90;;;;;;5024137;28;19921;-69
2023/08/15 05:56:35;;;;;;;;;;;21.00;99.90;;;;;;5023668;28;19992;-70
2023/08/15 05:59:02;;;;;;;;;;;21.10;99.90;;;;;;5024028;28;19928;-70
2023/08/15 06:01:28;;;;;;;;;;;21.20;99.90;;;;;;5024424;28;19988;-70
2023/08/15 06:03:55;;;;;;;;;;;21.30;99.90;;;;;;5024314;28;19997;-70
2023/08/15 06:06:23;;;;;;;;;;;21.40;99.90;;;;;;5024176;28;19984;-70
2023/08/15 06:08:50;;;;;;;;;;;21.50;99.90;;;;;;5023694;28;19988;-69
2023/08/15 06:11:16;;;;;;;;;;;21.60;99.90;;;;;;5024504;28;19921;-70
2023/08/15 06:13:44;;;;;;;;;;;21.70;99.90;;;;;;5024180;28;19921;-70
2023/08/15 06:16:11;;;;;;;;;;;21.80;99.90;;;;;;5024246;28;20116;-70
2023/08/15 06:18:38;;;;;;;;;;;21.90;99.90;;;;;;5023633;28;19992;-68
2023/08/15 06:21:04;;;;;;;;;;;22.00;99.90;;;;;;5024291;28;19925;-70
2023/08/15 06:23:31;;;;;;;;;;;22.00;99.90;;;;;;5023959;28;19993;-70
2023/08/15 06:26:03;;;;;;;;;;;22.10;99.90;;;;;;5021142;28;19928;-69
2023/08/15 06:28:31;;;;;;;;;;;22.10;99.90;;;;;;5020940;28;19988;-69
2023/08/15 06:30:59;;;;;;;;;;;22.20;99.90;;;;;;5023138;28;19928;-69
2023/08/15 06:33:26;;;;;;;;;;;22.20;99.90;;;;;;5023958;28;19988;-70
2023/08/15 06:35:53;;;;;;;;;;;22.30;99.90;;;;;;5023751;28;19944;-69
2023/08/15 06:38:19;;;;;;;;;;;22.30;99.90;;;;;;5023386;28;19927;-70
2023/08/15 06:40:46;;;;;;;;;;;22.30;99.90;;;;;;5024114;28;20120;-70
2023/08/15 06:43:13;;;;;;;;;;;22.40;99.90;;;;;;5023984;28;19922;-69
2023/08/15 06:45:39;;;;;;;;;;;22.40;99.90;;;;;;5023594;28;20205;-70
2023/08/15 06:48:07;;;;;;;;;;;22.40;99.90;;;;;;5023439;28;19956;-70
2023/08/15 06:50:34;;;;;;;;;;;22.50;99.90;;;;;;5024131;28;19921;-70
2023/08/15 06:53:00;;;;;;;;;;;22.50;99.90;;;;;;5023692;28;19922;-69
2023/08/15 06:55:27;;;;;;;;;;;22.50;99.90;;;;;;5023720;28;19928;-70
2023/08/15 06:57:54;;;;;;;;;;;22.50;99.90;;;;;;5022729;28;19928;-70
2023/08/15 07:00:21;;;;;;;;;;;22.60;99.90;;;;;;5027210;28;20202;-69
2023/08/15 07:02:47;;;;;;;;;;;22.60;99.90;;;;;;5027439;28;19992;-69
2023/08/15 07:05:15;;;;;;;;;;;22.60;99.90;;;;;;5027455;28;19921;-70
2023/08/15 07:07:42;;;;;;;;;;;22.60;99.90;;;;;;5026714;28;19988;-69
2023/08/15 07:10:10;;;;;;;;;;;22.60;99.90;;;;;;5027559;28;19952;-70
2023/08/15 07:12:36;;;;;;;;;;;22.60;99.90;;;;;;5027282;28;19921;-70
2023/08/15 07:15:03;;;;;;;;;;;22.60;99.90;;;;;;5027371;28;19921;-69
2023/08/15 07:17:30;;;;;;;;;;;22.60;99.90;;;;;;5026738;28;19925;-70
2023/08/15 07:19:56;;;;;;;;;;;22.70;99.90;;;;;;5027226;28;19988;-70
2023/08/15 07:22:24;;;;;;;;;;;22.70;99.90;;;;;;5027449;28;19984;-68
2023/08/15 07:24:51;;;;;;;;;;;22.80;99.90;;;;;;5026661;28;19938;-70
2023/08/15 07:27:21;;;;;;;;;;;22.90;99.90;;;;;;5021561;28;19929;-70
2023/08/15 07:29:48;;;;;;;;;;;23.00;99.90;;;;;;5023821;28;19928;-71
2023/08/15 07:32:15;;;;;;;;;;;23.00;99.90;;;;;;5027216;28;19988;-70
2023/08/15 07:34:42;;;;;;;;;;;23.10;99.90;;;;;;5026673;28;19921;-70
2023/08/15 07:37:08;;;;;;;;;;;23.10;99.90;;;;;;5026447;28;19921;-70
2023/08/15 07:39:36;;;;;;;;;;;23.20;99.90;;;;;;5026975;28;19984;-70
2023/08/15 07:42:03;;;;;;;;;;;23.30;99.90;;;;;;5026741;28;19921;-70
2023/08/15 07:44:30;;;;;;;;;;;23.30;99.90;;;;;;5026631;28;19960;-70
2023/08/15 07:46:57;;;;;;;;;;;23.40;99.90;;;;;;5026009;28;19933;-70
2023/08/15 07:49:24;;;;;;;;;;;23.50;99.90;;;;;;5026487;28;20289;-70
2023/08/15 07:51:52;;;;;;;;;;;23.50;99.90;;;;;;5026771;28;19992;-69
2023/08/15 07:54:19;;;;;;;;;;;23.60;99.90;;;;;;5026309;28;19944;-70
2023/08/15 07:56:47;;;;;;;;;;;23.60;99.90;;;;;;5025641;28;19948;-70
2023/08/15 07:59:13;;;;;;;;;;;23.80;99.90;;;;;;5026560;28;20172;-70
2023/08/15 08:01:40;;;;;;;;;;;23.90;99.90;;;;;;5026591;28;19992;-70
2023/08/15 08:04:06;;;;;;;;;;;24.10;99.90;;;;;;5026346;28;19957;-70
2023/08/15 08:06:33;;;;;;;;;;;24.20;99.90;;;;;;5025990;28;19984;-70
2023/08/15 08:09:00;;;;;;;;;;;24.30;99.90;;;;;;5026125;28;19988;-71
2023/08/15 08:11:26;;;;;;;;;;;24.40;99.90;;;;;;5025344;28;19936;-70
2023/08/15 08:13:54;;;;;;;;;;;24.60;99.90;;;;;;5026233;28;20184;-70
2023/08/15 08:16:21;;;;;;;;;;;24.80;99.90;;;;;;5025944;28;19929;-70
2023/08/15 08:18:48;;;;;;;;;;;24.90;99.90;;;;;;5025448;28;20260;-70
2023/08/15 08:21:14;;;;;;;;;;;24.90;99.90;;;;;;5026182;28;19984;-70
2023/08/15 08:23:41;;;;;;;;;;;25.00;99.90;;;;;;5025788;28;19921;-69
2023/08/15 08:26:07;;;;;;;;;;;25.10;99.90;;;;;;5025744;28;19921;-70
2023/08/15 08:28:35;;;;;;;;;;;25.20;99.90;;;;;;5022787;28;19956;-70
2023/08/15 08:31:03;;;;;;;;;;;25.20;99.90;;;;;;5025819;28;19922;-70
2023/08/15 08:33:31;;;;;;;;;;;25.40;99.90;;;;;;5023369;28;20124;-70
2023/08/15 08:35:58;;;;;;;;;;;25.40;99.90;;;;;;5025320;28;19964;-70
2023/08/15 08:38:25;;;;;;;;;;;25.50;99.90;;;;;;5025093;28;19921;-70
2023/08/15 08:40:54;;;;;;;;;;;25.60;99.90;;;;;;5025593;28;19925;-70
2023/08/15 08:43:21;;;;;;;;;;;25.80;99.90;;;;;;5025652;28;19929;-70
2023/08/15 08:45:48;;;;;;;;;;;25.90;99.90;;;;;;5025259;28;19992;-70
2023/08/15 08:48:17;;;;;;;;;;;26.00;99.90;;;;;;5024930;28;19929;-70
2023/08/15 08:50:45;;;;;;;;;;;26.00;99.90;;;;;;5025553;28;20112;-70
2023/08/15 08:53:11;;;;;;;;;;;26.00;99.90;;;;;;5025397;28;19921;-70
2023/08/15 08:55:39;;;;;;;;;;;26.10;99.90;;;;;;5025310;28;20117;-69
2023/08/15 08:58:06;;;;;;;;;;;26.20;99.90;;;;;;5024824;28;20184;-70
2023/08/15 09:00:33;;;;;;;;;;;26.30;99.90;;;;;;5025495;28;19927;-70
2023/08/15 09:03:00;;;;;;;;;;;26.30;99.90;;;;;;5025269;28;19968;-70
2023/08/15 09:05:28;;;;;;;;;;;26.40;99.90;;;;;;5025001;28;19988;-70
2023/08/15 09:07:55;;;;;;;;;;;26.40;99.90;;;;;;5024656;28;19921;-70
2023/08/15 09:10:22;;;;;;;;;;;26.50;99.90;;;;;;5024768;28;20213;-70
2023/08/15 09:12:49;;;;;;;;;;;26.60;99.90;;;;;;5025127;28;19928;-70
2023/08/15 09:15:15;;;;;;;;;;;26.70;99.90;;;;;;5024765;28;20117;-70
2023/08/15 09:17:43;;;;;;;;;;;26.80;99.90;;;;;;5023959;28;20352;-70
2023/08/15 09:20:11;;;;;;;;;;;26.80;99.90;;;;;;5024995;28;19921;-70
2023/08/15 09:22:41;;;;;;;;;;;27.00;99.90;;;;;;5024556;28;19921;-70
2023/08/15 09:25:08;;;;;;;;;;;27.10;99.90;;;;;;5024503;28;20121;-71
2023/08/15 09:27:35;;;;;;;;;;;27.10;99.90;;;;;;5024182;28;19922;-70
2023/08/15 09:30:11;;;;;;;;;;;27.20;99.90;;;;;;5024455;28;19921;-70
2023/08/15 09:32:41;;;;;;;;;;;27.30;99.90;;;;;;5024658;28;19964;-71
2023/08/15 09:35:09;;;;;;;;;;;27.40;99.90;;;;;;5022260;28;19944;-70
2023/08/15 09:37:40;;;;;;;;;;;27.60;99.90;;;;;;5024150;28;19984;-70
2023/08/15 09:40:08;;;;;;;;;;;27.70;99.90;;;;;;5024393;28;19921;-70
2023/08/15 09:42:35;;;;;;;;;;;27.80;99.90;;;;;;5024487;28;20040;-70
2023/08/15 09:45:02;;;;;;;;;;;27.90;99.90;;;;;;5024063;28;19921;-70
2023/08/15 09:47:29;;;;;;;;;;;27.90;99.90;;;;;;5023742;28;19928;-69
2023/08/15 09:49:57;;;;;;;;;;;27.90;99.90;;;;;;5024355;28;19921;-70
2023/08/15 09:52:25;;;;;;;;;;;27.90;99.90;;;;;;5024100;28;20209;-70
2023/08/15 09:54:53;;;;;;;;;;;27.90;99.90;;;;;;5023970;28;20264;-70
2023/08/15 09:57:19;;;;;;;;;;;27.90;99.90;;;;;;5023710;28;19964;-70
2023/08/15 09:59:46;;;;;;;;;;;28.00;99.90;;;;;;5023904;28;19921;-70
2023/08/15 10:02:21;;;;;;;;;;;28.00;99.90;;;;;;5023493;28;20403;-69
2023/08/15 10:04:52;;;;;;;;;;;28.10;99.90;;;;;;5023571;28;20445;-70
2023/08/15 10:07:19;;;;;;;;;;;28.10;99.90;;;;;;5023602;28;19921;-70
2023/08/15 10:09:46;;;;;;;;;;;28.10;99.90;;;;;;5023776;28;19921;-70
2023/08/15 10:12:14;;;;;;;;;;;28.10;99.90;;;;;;5024097;28;19921;-70
2023/08/15 10:14:40;;;;;;;;;;;28.10;99.90;;;;;;5023499;28;20237;-70
2023/08/15 10:17:07;;;;;;;;;;;28.10;99.90;;;;;;5023410;28;20094;-71
2023/08/15 10:19:34;;;;;;;;;;;28.10;99.90;;;;;;5023568;28;19985;-69
2023/08/15 10:22:03;;;;;;;;;;;28.00;99.90;;;;;;5023614;28;20228;-70
2023/08/15 10:24:30;;;;;;;;;;;28.00;99.90;;;;;;5023749;28;19984;-71
2023/08/15 10:26:58;;;;;;;;;;;28.00;99.90;;;;;;5022859;28;20201;-70
2023/08/15 10:29:29;;;;;;;;;;;28.00;99.90;;;;;;5023871;28;19925;-70
2023/08/15 10:31:59;;;;;;;;;;;27.90;99.90;;;;;;5023415;28;19928;-70
2023/08/15 10:34:25;;;;;;;;;;;27.90;99.90;;;;;;5023047;28;19921;-70
2023/08/15 10:37:12;;;;;;;;;;;27.90;99.90;;;;;;5023003;28;19922;-70
2023/08/15 10:39:38;;;;;;;;;;;27.90;99.90;;;;;;5023330;28;20120;-69
2023/08/15 10:42:07;;;;;;;;;;;27.80;99.90;;;;;;5023721;28;19921;-70
2023/08/15 10:44:38;;;;;;;;;;;27.80;99.90;;;;;;5023549;28;19985;-70
2023/08/15 10:47:20;;;;;;;;;;;27.80;99.90;;;;;;5023133;28;19921;-69
2023/08/15 10:49:46;;;;;;;;;;;27.80;99.90;;;;;;5003601;28;19981;-70
2023/08/15 10:52:13;;;;;;;;;;;27.80;99.90;;;;;;5003939;28;19928;-70
2023/08/15 10:54:40;;;;;;;;;;;27.70;99.90;;;;;;5003633;28;20205;-70
2023/08/15 10:57:07;;;;;;;;;;;27.80;99.90;;;;;;5003449;28;19929;-70
2023/08/15 10:59:36;;;;;;;;;;;27.70;99.90;;;;;;5004022;28;19958;-69
2023/08/15 11:02:04;;;;;;;;;;;27.70;99.90;;;;;;5004028;28;19990;-70
2023/08/15 11:04:32;;;;;;;;;;;27.70;99.90;;;;;;5003560;28;19922;-69
2023/08/15 11:06:58;;;;;;;;;;;27.70;99.90;;;;;;5003080;28;19922;-70
2023/08/15 11:09:27;;;;;;;;;;;27.70;99.90;;;;;;5003908;28;20229;-70
2023/08/15 11:11:54;;;;;;;;;;;27.70;99.90;;;;;;5003991;28;19922;-70
2023/08/15 11:14:21;;;;;;;;;;;27.70;99.90;;;;;;5003610;28;20257;-70
2023/08/15 11:16:48;;;;;;;;;;;27.70;99.90;;;;;;5003082;28;19930;-69
2023/08/15 11:19:16;;;;;;;;;;;27.60;99.90;;;;;;5003996;28;19922;-70
2023/08/15 11:21:43;;;;;;;;;;;27.70;99.90;;;;;;5003564;28;20256;-70
2023/08/15 11:24:10;;;;;;;;;;;27.70;99.90;;;;;;5003951;28;19961;-70
2023/08/15 11:26:37;;;;;;;;;;;27.70;99.90;;;;;;5002804;28;20002;-70
2023/08/15 11:29:04;;;;;;;;;;;27.60;99.90;;;;;;5003621;28;19922;-70
2023/08/15 11:31:30;;;;;;;;;;;27.60;99.90;;;;;;5003457;28;20210;-70
2023/08/15 11:33:58;;;;;;;;;;;27.70;99.90;;;;;;5003726;28;19928;-70
2023/08/15 11:36:26;;;;;;;;;;;27.70;99.90;;;;;;5003557;28;19922;-70
2023/08/15 11:38:53;;;;;;;;;;;27.60;99.90;;;;;;5019968;28;20217;-70
2023/08/15 11:41:20;;;;;;;;;;;27.60;99.90;;;;;;5023330;28;19928;-70
2023/08/15 11:43:46;;;;;;;;;;;27.60;99.90;;;;;;5023329;28;19928;-70
2023/08/15 11:46:13;;;;;;;;;;;27.50;99.90;;;;;;5025799;28;19925;-70
2023/08/15 11:48:43;;;;;;;;;;;27.50;99.90;;;;;;5026057;28;19928;-70
2023/08/15 11:51:10;;;;;;;;;;;27.50;99.90;;;;;;5026731;28;19921;-70
2023/08/15 11:53:38;;;;;;;;;;;27.40;99.90;;;;;;5026344;28;20121;-70
2023/08/15 11:56:04;;;;;;;;;;;27.30;99.90;;;;;;5026437;28;19921;-69
2023/08/15 11:58:31;;;;;;;;;;;27.30;99.90;;;;;;5025657;28;20269;-70
2023/08/15 12:01:01;;;;;;;;;;;27.30;99.90;;;;;;5026701;28;19923;-70
2023/08/15 12:03:28;;;;;;;;;;;27.30;99.90;;;;;;5026154;28;19922;-70
2023/08/15 12:05:55;;;;;;;;;;;27.20;99.90;;;;;;5026038;28;19992;-70
2023/08/15 12:08:21;;;;;;;;;;;27.30;99.90;;;;;;5025700;28;19921;-70
2023/08/15 12:10:49;;;;;;;;;;;27.40;99.90;;;;;;5025934;28;19952;-70
2023/08/15 12:13:16;;;;;;;;;;;27.50;99.90;;;;;;5025991;28;19968;-70
2023/08/15 12:15:43;;;;;;;;;;;27.60;99.90;;;;;;5026128;28;20004;-70
2023/08/15 12:18:09;;;;;;;;;;;27.60;99.90;;;;;;5025532;28;19921;-70
2023/08/15 12:20:36;;;;;;;;;;;27.60;99.90;;;;;;5025794;28;20209;-70
2023/08/15 12:23:03;;;;;;;;;;;27.40;99.90;;;;;;5025974;28;19921;-70
2023/08/15 12:25:29;;;;;;;;;;;27.30;99.90;;;;;;5025428;28;19964;-69
2023/08/15 12:27:57;;;;;;;;;;;27.20;99.90;;;;;;5025199;28;20162;-70
2023/08/15 12:30:24;;;;;;;;;;;27.20;99.90;;;;;;5025928;28;19985;-70
2023/08/15 12:32:50;;;;;;;;;;;27.20;99.90;;;;;;5025740;28;19980;-70
2023/08/15 12:35:17;;;;;;;;;;;27.20;99.90;;;;;;5025708;28;19921;-70
2023/08/15 12:37:43;;;;;;;;;;;27.20;99.90;;;;;;5024998;28;19993;-71
2023/08/15 12:40:11;;;;;;;;;;;27.10;99.90;;;;;;5025521;28;19928;-70
2023/08/15 12:42:37;;;;;;;;;;;27.10;99.90;;;;;;5025368;28;20382;-70
2023/08/15 12:45:06;;;;;;;;;;;27.10;99.90;;;;;;5025428;28;20209;-70
2023/08/15 12:47:32;;;;;;;;;;;27.10;99.90;;;;;;5024917;28;19928;-70
2023/08/15 12:50:00;;;;;;;;;;;27.00;99.90;;;;;;5025262;28;20284;-70
2023/08/15 12:52:26;;;;;;;;;;;27.00;99.90;;;;;;5025480;28;19953;-70
2023/08/15 12:54:53;;;;;;;;;;;27.00;99.90;;;;;;5025078;28;19989;-71
2023/08/15 12:57:19;;;;;;;;;;;26.90;99.90;;;;;;5023887;28;20231;-70
2023/08/15 12:59:46;;;;;;;;;;;26.80;99.90;;;;;;5025243;28;19930;-71
2023/08/15 13:02:14;;;;;;;;;;;26.80;99.90;;;;;;5025019;28;19988;-70
2023/08/15 13:04:41;;;;;;;;;;;26.80;99.90;;;;;;5025171;28;19928;-70
2023/08/15 13:07:07;;;;;;;;;;;26.80;99.90;;;;;;5024516;28;19921;-70
2023/08/15 13:09:34;;;;;;;;;;;26.70;99.90;;;;;;5025200;28;19922;-70
2023/08/15 13:12:01;;;;;;;;;;;26.70;99.90;;;;;;5024656;28;20210;-70
2023/08/15 13:14:27;;;;;;;;;;;26.60;99.90;;;;;;5025014;28;19921;-70
2023/08/15 13:16:54;;;;;;;;;;;26.60;99.90;;;;;;5023939;28;20264;-70
2023/08/15 13:19:22;;;;;;;;;;;26.60;99.90;;;;;;5024998;28;19992;-69
2023/08/15 13:21:49;;;;;;;;;;;26.70;99.90;;;;;;5025068;28;19928;-70
2023/08/15 13:24:16;;;;;;;;;;;26.90;99.90;;;;;;5024954;28;20138;-70
2023/08/15 13:26:42;;;;;;;;;;;27.00;99.90;;;;;;5024041;28;19930;-70
2023/08/15 13:29:09;;;;;;;;;;;27.10;99.90;;;;;;5024751;28;20172;-69
2023/08/15 13:31:35;;;;;;;;;;;27.20;99.90;;;;;;5024641;28;19936;-70
2023/08/15 13:34:08;;;;;;;;;;;27.20;99.90;;;;;;5021809;28;20284;-70
2023/08/15 13:36:36;;;;;;;;;;;27.40;99.90;;;;;;5023842;28;19925;-69
2023/08/15 13:39:02;;;;;;;;;;;27.60;99.90;;;;;;5024330;28;19921;-69
2023/08/15 13:41:29;;;;;;;;;;;27.60;99.90;;;;;;5024331;28;20289;-69
2023/08/15 13:43:57;;;;;;;;;;;27.80;99.90;;;;;;5024390;28;19925;-70
2023/08/15 13:46:24;;;;;;;;;;;27.80;99.90;;;;;;5024181;28;19921;-70
2023/08/15 13:48:50;;;;;;;;;;;28.00;99.90;;;;;;5023810;28;19921;-70
2023/08/15 13:51:17;;;;;;;;;;;28.20;99.90;;;;;;5023695;28;20205;-70
2023/08/15 13:53:45;;;;;;;;;;;28.50;99.90;;;;;;5024599;28;20177;-72
2023/08/15 13:56:12;;;;;;;;;;;28.90;99.90;;;;;;5024156;28;19984;-70
2023/08/15 13:58:39;;;;;;;;;;;29.20;99.90;;;;;;5023744;28;19960;-70
2023/08/15 14:01:06;;;;;;;;;;;29.50;99.90;;;;;;5024304;28;20084;-70
2023/08/15 14:03:34;;;;;;;;;;;29.70;99.90;;;;;;5023391;28;19921;-71
2023/08/15 14:06:01;;;;;;;;;;;30.00;99.90;;;;;;5024071;28;19997;-70
2023/08/15 14:08:28;;;;;;;;;;;30.20;99.90;;;;;;5023815;28;19921;-70
2023/08/15 14:10:56;;;;;;;;;;;30.20;99.90;;;;;;5024429;28;19922;-70
2023/08/15 14:13:24;;;;;;;;;;;30.30;99.90;;;;;;5024153;28;19935;-70
2023/08/15 14:15:50;;;;;;;;;;;30.40;99.90;;;;;;5023715;28;19980;-70